Pernille — 5BNZ2 — position and weather

sailwx.info

Track history (hours):
 
Tides and Currents Weather Stations Pressure Air Temp Water Temp Dewpoint Dewpoint Depression Visibility Wind Speed Wind Dir Waves Ship Positions

Pernille

Last reported at 2015-Jul-31 18:08 UTC. Time now 2015-Aug-03 17:14 UTC.
Position N 39°52' E 008°33'.

Length 82 m; draft 5.3 m.

Type: Cargo ship. MMSI: 212662000.

Date/timePositionNaut miles runAvg speedWind from/ knotsBaromVisibWave heightAir tempDewpointWater temp
2015-Jul-31 18:08N 39°52' E 008°33'1 0.0
2015-Jul-30 05:33N 39°52' E 008°32'  
2015-Jul-24 17:31N 41°01' E 002°00'1110.9
2015-Jul-24 16:32N 40°51' E 001°54'1010.6
2015-Jul-24 15:33N 40°42' E 001°48'1111.3
2015-Jul-24 14:33N 40°32' E 001°41'1111.4
2015-Jul-24 13:33N 40°22' E 001°34'1111.3
2015-Jul-24 12:33N 40°12' E 001°27'1111.4
2015-Jul-24 11:33N 40°02' E 001°20'1111.5
2015-Jul-24 10:33N 39°52' E 001°13'4511.2
2015-Jul-24 06:32N 39°11' E 000°47'4411.1
2015-Jul-24 02:32N 38°34' E 000°16'3411.3
2015-Jul-23 23:32N 38°19' W 000°23'22 2.6
2015-Jul-23 15:07N 37°58' W 000°27'610.9
2015-Jul-23 14:33N 37°52' W 000°28'1110.9
2015-Jul-23 13:33N 37°41' W 000°29'1010.0
2015-Jul-23 12:33N 37°32' W 000°34'1010.1
2015-Jul-23 11:33N 37°25' W 000°43'1110.2
2015-Jul-23 10:31N 37°17' W 000°53'  
Track history (hours):
 
Tides and Currents Weather Stations Pressure Air Temp Water Temp Dewpoint Dewpoint Depression Visibility Wind Speed Wind Dir Waves Ship Positions

Pernille

Last reported at 2015-Jul-31 18:08 UTC. Time now 2015-Aug-03 17:14 UTC.
Position N 39°52' E 008°33'.

Length 82 m; draft 5.3 m.

Type: Cargo ship. MMSI: 212662000.

Date/timePositionNaut miles runAvg speedWind from/ knotsBaromVisibWave heightAir tempDewpointWater temp
2015-Jul-31 18:08N 39°52' E 008°33'1 0.0
2015-Jul-30 05:33N 39°52' E 008°32'  
2015-Jul-24 17:31N 41°01' E 002°00'1110.9
2015-Jul-24 16:32N 40°51' E 001°54'1010.6
2015-Jul-24 15:33N 40°42' E 001°48'1111.3
2015-Jul-24 14:33N 40°32' E 001°41'1111.4
2015-Jul-24 13:33N 40°22' E 001°34'1111.3
2015-Jul-24 12:33N 40°12' E 001°27'1111.4
2015-Jul-24 11:33N 40°02' E 001°20'1111.5
2015-Jul-24 10:33N 39°52' E 001°13'4511.2
2015-Jul-24 06:32N 39°11' E 000°47'4411.1
2015-Jul-24 02:32N 38°34' E 000°16'3411.3
2015-Jul-23 23:32N 38°19' W 000°23'22 2.6
2015-Jul-23 15:07N 37°58' W 000°27'610.9
2015-Jul-23 14:33N 37°52' W 000°28'1110.9
2015-Jul-23 13:33N 37°41' W 000°29'1010.0
2015-Jul-23 12:33N 37°32' W 000°34'1010.1
2015-Jul-23 11:33N 37°25' W 000°43'1110.2
2015-Jul-23 10:31N 37°17' W 000°53'  

Dump ship's entire track history